createdAt,value
2022-12-27T00:01:14.602Z,4.50
2022-12-27T00:03:42.101Z,5.05
2022-12-27T00:06:13.935Z,3.65
2022-12-27T00:08:41.419Z,4.85
2022-12-27T00:11:09.293Z,4.75
2022-12-27T00:13:36.770Z,5.70
2022-12-27T00:16:05.224Z,3.40
2022-12-27T00:18:34.000Z,5.03
2022-12-27T00:21:01.895Z,4.25
2022-12-27T00:23:32.146Z,4.32
2022-12-27T00:26:01.277Z,3.60
2022-12-27T00:28:30.587Z,5.07
2022-12-27T00:30:58.072Z,4.38
2022-12-27T00:33:25.633Z,7.35
2022-12-27T00:35:54.339Z,5.00
2022-12-27T00:38:21.749Z,5.22
2022-12-27T00:40:49.144Z,5.25
2022-12-27T00:43:16.572Z,4.00
2022-12-27T00:45:44.290Z,2.85
2022-12-27T00:48:11.719Z,3.75
2022-12-27T00:50:40.041Z,5.45
2022-12-27T00:53:08.861Z,4.68
2022-12-27T00:55:36.372Z,4.10
2022-12-27T00:58:03.850Z,3.95
2022-12-27T01:00:31.343Z,3.97
2022-12-27T01:02:58.763Z,3.22
2022-12-27T01:05:26.174Z,3.10
2022-12-27T01:07:53.580Z,5.15
2022-12-27T01:10:22.283Z,4.90
2022-12-27T01:12:49.817Z,5.13
2022-12-27T01:15:17.216Z,5.43
2022-12-27T01:17:44.643Z,4.10
2022-12-27T01:20:12.102Z,6.22
2022-12-27T01:22:39.551Z,6.13
2022-12-27T01:25:07.981Z,4.57
2022-12-27T01:27:36.705Z,4.68
2022-12-27T01:30:04.252Z,5.55
2022-12-27T01:32:33.293Z,4.57
2022-12-27T01:35:00.678Z,3.90
2022-12-27T01:37:28.422Z,3.72
2022-12-27T01:39:55.836Z,5.70
2022-12-27T01:42:52.553Z,3.90
2022-12-27T01:45:21.568Z,2.85
2022-12-27T01:47:52.617Z,3.05
2022-12-27T01:50:27.079Z,3.83
2022-12-27T01:52:58.725Z,5.38
2022-12-27T01:55:29.681Z,3.28
2022-12-27T01:57:59.474Z,3.20
2022-12-27T02:00:28.205Z,2.95
2022-12-27T02:02:55.641Z,4.35
2022-12-27T02:05:23.135Z,4.35
2022-12-27T02:08:09.849Z,3.92
2022-12-27T02:10:37.275Z,4.20
2022-12-27T02:13:05.324Z,3.22
2022-12-27T02:15:34.030Z,4.20
2022-12-27T02:18:01.441Z,2.80
2022-12-27T02:20:32.251Z,6.13
2022-12-27T02:23:53.546Z,6.45
2022-12-27T02:26:49.152Z,2.40
2022-12-27T02:29:23.740Z,4.40
2022-12-27T02:31:54.219Z,3.63
2022-12-27T02:34:23.978Z,2.25
2022-12-27T02:36:53.016Z,2.80
2022-12-27T02:39:20.454Z,3.72
2022-12-27T02:42:05.845Z,4.07
2022-12-27T02:44:52.423Z,3.60
2022-12-27T02:47:38.399Z,4.93
2022-12-27T02:50:24.368Z,3.83
2022-12-27T02:53:05.008Z,4.60
2022-12-27T02:56:04.165Z,4.75
2022-12-27T02:58:33.287Z,2.55
2022-12-27T03:01:24.298Z,3.00
2022-12-27T03:03:58.580Z,3.83
2022-12-27T03:06:43.870Z,3.80
2022-12-27T03:09:35.642Z,4.78
2022-12-27T03:12:21.115Z,2.75
2022-12-27T03:15:05.928Z,5.30
2022-12-27T03:17:36.333Z,3.08
2022-12-27T03:20:22.441Z,6.05
2022-12-27T03:23:18.656Z,4.25
2022-12-27T03:25:46.071Z,3.97
2022-12-27T03:28:32.413Z,3.65
2022-12-27T03:31:20.408Z,4.32
2022-12-27T03:33:49.859Z,5.43
2022-12-27T03:36:36.390Z,3.50
2022-12-27T03:39:06.193Z,3.58
2022-12-27T03:41:53.891Z,4.22
2022-12-27T03:44:26.900Z,4.95
2022-12-27T03:46:55.406Z,3.83
2022-12-27T03:49:25.997Z,3.80
2022-12-27T03:51:55.245Z,4.78
2022-12-27T03:54:26.305Z,4.23
2022-12-27T03:56:55.486Z,4.35
2022-12-27T03:59:22.881Z,4.18
2022-12-27T04:01:50.377Z,5.38
2022-12-27T04:04:17.805Z,7.57
2022-12-27T04:06:46.518Z,4.75
2022-12-27T04:09:31.612Z,4.60
2022-12-27T04:12:16.830Z,4.78
2022-12-27T04:15:01.672Z,4.53
2022-12-27T04:17:46.847Z,3.60
2022-12-27T04:20:32.094Z,3.85
2022-12-27T04:23:18.587Z,4.82
2022-12-27T04:26:03.894Z,3.42
2022-12-27T04:28:48.606Z,5.18
2022-12-27T04:31:34.020Z,4.30
2022-12-27T04:34:19.554Z,5.10
2022-12-27T04:36:47.065Z,3.25
2022-12-27T04:39:15.772Z,4.35
2022-12-27T04:42:00.470Z,4.32
2022-12-27T04:44:45.914Z,5.13
2022-12-27T04:47:31.191Z,5.07
2022-12-27T04:50:15.960Z,6.47
2022-12-27T04:53:00.877Z,4.55
2022-12-27T04:55:30.025Z,5.70
2022-12-27T04:57:57.679Z,3.55
2022-12-27T05:00:43.644Z,4.47
2022-12-27T05:03:12.282Z,4.88
2022-12-27T05:05:39.766Z,3.67
2022-12-27T05:08:25.241Z,4.38
2022-12-27T05:11:11.803Z,5.68
2022-12-27T05:13:59.284Z,4.18
2022-12-27T05:16:26.728Z,5.90
2022-12-27T05:18:54.314Z,4.13
2022-12-27T05:21:21.688Z,4.10
2022-12-27T05:24:06.803Z,4.90
2022-12-27T05:26:35.654Z,6.57
2022-12-27T05:29:03.079Z,3.20
2022-12-27T05:31:30.595Z,5.88
2022-12-27T05:33:58.089Z,5.00
2022-12-27T05:36:25.635Z,4.18
2022-12-27T05:38:53.052Z,4.82
2022-12-27T05:41:20.497Z,4.63
2022-12-27T05:43:49.227Z,3.85
2022-12-27T05:46:17.376Z,5.40
2022-12-27T05:48:44.826Z,7.15
2022-12-27T05:51:13.821Z,4.68
2022-12-27T05:53:41.208Z,5.45
2022-12-27T05:56:08.941Z,4.22
2022-12-27T06:01:02.068Z,5.72
2022-12-27T06:03:29.791Z,8.77
2022-12-27T06:06:01.447Z,8.35
2022-12-27T06:08:29.074Z,9.13
2022-12-27T06:11:03.594Z,8.68
2022-12-27T06:13:31.262Z,6.57
2022-12-27T06:16:00.114Z,7.15
2022-12-27T06:18:29.670Z,3.38
2022-12-27T06:21:02.213Z,5.03
2022-12-27T06:23:29.648Z,5.15
2022-12-27T06:25:57.039Z,10.18
2022-12-27T06:28:24.420Z,5.53
2022-12-27T06:30:51.815Z,5.60
2022-12-27T06:33:19.211Z,6.05
2022-12-27T06:35:47.900Z,6.07
2022-12-27T06:38:15.314Z,4.75
2022-12-27T06:40:42.690Z,9.77
2022-12-27T06:43:10.102Z,6.35
2022-12-27T06:45:37.476Z,7.47
2022-12-27T06:48:05.245Z,7.38
2022-12-27T06:53:01.830Z,6.65
2022-12-27T06:55:29.214Z,7.43
2022-12-27T06:57:56.604Z,6.65
2022-12-27T07:00:23.982Z,7.60
2022-12-27T07:02:51.420Z,4.55
2022-12-27T07:05:18.859Z,7.40
2022-12-27T07:07:46.240Z,8.65
2022-12-27T07:10:14.950Z,7.05
2022-12-27T07:12:42.350Z,4.40
2022-12-27T07:15:10.309Z,3.72
2022-12-27T07:17:37.796Z,5.22
2022-12-27T07:20:05.612Z,7.07
2022-12-27T07:22:32.995Z,5.32
2022-12-27T07:25:00.380Z,8.05
2022-12-27T07:27:29.073Z,6.88
2022-12-27T07:29:56.492Z,6.60
2022-12-27T07:32:23.917Z,6.53
2022-12-27T07:34:51.318Z,8.75
2022-12-27T07:37:18.708Z,6.45
2022-12-27T07:39:46.327Z,6.57
2022-12-27T07:42:13.746Z,6.60
2022-12-27T07:44:42.547Z,5.90
2022-12-27T07:47:09.938Z,8.13
2022-12-27T07:49:37.346Z,6.13
2022-12-27T07:52:04.931Z,8.40
2022-12-27T07:54:32.308Z,7.38
2022-12-27T07:56:59.735Z,10.35
2022-12-27T07:59:27.395Z,9.85
2022-12-27T08:02:04.946Z,7.10
2022-12-27T08:04:35.157Z,5.28
2022-12-27T08:09:32.045Z,7.45
2022-12-27T08:11:59.440Z,8.23
2022-12-27T08:14:26.819Z,9.95
2022-12-27T08:16:55.619Z,6.50
2022-12-27T08:19:23.061Z,7.10
2022-12-27T08:21:50.451Z,5.72
2022-12-27T08:24:17.875Z,6.70
2022-12-27T08:26:45.262Z,7.30
2022-12-27T08:29:12.678Z,8.02
2022-12-27T08:31:40.229Z,5.60
2022-12-27T08:34:08.937Z,6.75
2022-12-27T08:36:54.747Z,7.47
2022-12-27T08:39:23.194Z,6.38
2022-12-27T08:41:50.611Z,6.47
2022-12-27T08:44:18.005Z,4.70
2022-12-27T08:46:45.841Z,6.30
2022-12-27T08:49:14.530Z,6.55
2022-12-27T08:51:41.942Z,5.95
2022-12-27T08:54:09.393Z,6.88
2022-12-27T08:56:36.802Z,7.00
2022-12-27T08:59:04.254Z,4.40
2022-12-27T09:01:32.508Z,5.72
2022-12-27T09:03:59.944Z,6.75
2022-12-27T09:06:28.711Z,3.83
2022-12-27T09:08:56.234Z,5.68
2022-12-27T09:11:24.872Z,7.85
2022-12-27T09:13:52.597Z,6.45
2022-12-27T09:16:21.160Z,6.40
2022-12-27T09:18:49.417Z,7.18
2022-12-27T09:21:17.633Z,6.07
2022-12-27T09:23:46.469Z,5.75
2022-12-27T09:26:14.698Z,7.32
2022-12-27T09:28:42.158Z,4.65
2022-12-27T09:31:09.757Z,6.30
2022-12-27T09:33:37.251Z,5.75
2022-12-27T09:36:05.359Z,6.55
2022-12-27T09:38:32.746Z,15.95
2022-12-27T09:41:02.412Z,8.00
2022-12-27T09:43:36.338Z,7.78
2022-12-27T09:46:03.758Z,6.30
2022-12-27T09:48:33.484Z,9.13
2022-12-27T09:51:02.919Z,9.40
2022-12-27T09:53:34.469Z,7.68
2022-12-27T09:56:03.165Z,8.85
2022-12-27T09:58:39.189Z,9.00
2022-12-27T10:01:15.764Z,10.32
2022-12-27T10:03:43.172Z,10.30
2022-12-27T10:06:16.270Z,9.02
2022-12-27T10:08:45.995Z,9.45
2022-12-27T10:11:36.007Z,9.85
2022-12-27T10:14:06.842Z,9.70
2022-12-27T10:16:37.311Z,12.43
2022-12-27T10:19:13.004Z,11.88
2022-12-27T10:21:42.258Z,11.35
2022-12-27T10:24:15.927Z,12.20
2022-12-27T10:26:44.623Z,11.80
2022-12-27T10:29:14.985Z,11.68
2022-12-27T10:31:43.120Z,11.00
2022-12-27T10:34:10.989Z,9.50
2022-12-27T10:36:38.471Z,11.52
2022-12-27T10:39:07.011Z,9.63
2022-12-27T10:41:39.448Z,10.77
2022-12-27T10:44:10.362Z,10.88
2022-12-27T10:46:38.150Z,10.68
2022-12-27T10:49:22.259Z,12.07
2022-12-27T10:51:49.989Z,10.00
2022-12-27T10:54:17.824Z,47.42
2022-12-27T10:56:45.644Z,31.50
2022-12-27T10:59:16.738Z,36.13
2022-12-27T11:01:45.832Z,29.45
2022-12-27T11:04:20.083Z,29.37
2022-12-27T11:06:49.847Z,22.48
2022-12-27T11:09:31.428Z,25.13
2022-12-27T11:12:17.446Z,24.33
2022-12-27T11:14:56.719Z,23.52
2022-12-27T11:17:25.003Z,23.80
2022-12-27T11:19:52.419Z,16.30
2022-12-27T11:22:19.829Z,16.27
2022-12-27T11:24:48.035Z,18.40
2022-12-27T11:27:21.920Z,19.90
2022-12-27T11:29:49.291Z,15.88
2022-12-27T11:32:18.045Z,15.48
2022-12-27T11:34:46.608Z,22.40
2022-12-27T11:37:16.052Z,17.33
2022-12-27T11:39:44.333Z,22.80
2022-12-27T11:42:17.211Z,16.83
2022-12-27T11:44:46.196Z,20.52
2022-12-27T11:47:15.682Z,21.95
2022-12-27T11:49:56.991Z,23.10
2022-12-27T11:52:52.228Z,20.23
2022-12-27T11:55:39.848Z,30.52
2022-12-27T11:58:35.556Z,19.25
2022-12-27T12:01:15.288Z,25.67
2022-12-27T12:04:04.581Z,24.35
2022-12-27T12:06:38.188Z,79.33
2022-12-27T12:09:23.078Z,42.05
2022-12-27T12:12:01.930Z,73.88
2022-12-27T12:14:55.919Z,63.72
2022-12-27T12:17:35.900Z,59.58
2022-12-27T12:20:36.052Z,62.03
2022-12-27T12:23:09.277Z,31.40
2022-12-27T12:25:53.031Z,46.30
2022-12-27T12:28:59.888Z,49.00
2022-12-27T12:32:02.595Z,54.08
2022-12-27T12:34:41.970Z,41.75
2022-12-27T12:37:15.346Z,30.00
2022-12-27T12:39:55.364Z,29.50
2022-12-27T12:42:23.148Z,32.17
2022-12-27T12:45:12.132Z,28.13
2022-12-27T12:48:03.301Z,31.63
2022-12-27T12:50:37.426Z,24.15
2022-12-27T12:53:23.077Z,19.48
2022-12-27T12:56:01.882Z,19.58
2022-12-27T12:58:46.101Z,20.63
2022-12-27T13:01:24.979Z,20.88
2022-12-27T13:04:12.540Z,19.20
2022-12-27T13:07:14.263Z,17.85
2022-12-27T13:09:49.697Z,20.60
2022-12-27T13:12:20.567Z,17.75
2022-12-27T13:15:13.994Z,11.38
2022-12-27T13:17:45.692Z,15.35
2022-12-27T13:20:23.040Z,11.45
2022-12-27T13:22:57.720Z,16.52
2022-12-27T13:25:28.934Z,16.83
2022-12-27T13:28:02.015Z,12.15
2022-12-27T13:30:31.293Z,14.20
2022-12-27T13:33:10.978Z,13.60
2022-12-27T13:35:55.936Z,14.05
2022-12-27T13:38:31.265Z,13.05
2022-12-27T13:41:10.902Z,11.80
2022-12-27T13:43:50.937Z,10.18
2022-12-27T13:46:42.087Z,8.82
2022-12-27T13:49:31.198Z,10.18
2022-12-27T13:52:02.143Z,8.35
2022-12-27T13:55:14.342Z,11.40
2022-12-27T13:57:54.755Z,9.73
2022-12-27T14:00:24.635Z,7.47
2022-12-27T14:03:20.010Z,9.27
2022-12-27T14:06:06.591Z,9.63
2022-12-27T14:08:51.408Z,11.75
2022-12-27T14:11:28.157Z,7.50
2022-12-27T14:13:55.548Z,8.23
2022-12-27T14:16:29.864Z,7.53
2022-12-27T14:19:07.149Z,10.18
2022-12-27T14:22:00.091Z,9.82
2022-12-27T14:24:48.816Z,6.78
2022-12-27T14:27:54.369Z,6.28
2022-12-27T14:30:47.083Z,6.53
2022-12-27T14:33:32.106Z,7.18
2022-12-27T14:36:27.250Z,4.30
2022-12-27T14:39:09.765Z,7.40
2022-12-27T14:42:00.159Z,7.63
2022-12-27T14:44:50.832Z,5.07
2022-12-27T14:47:46.408Z,5.72
2022-12-27T14:50:44.763Z,5.68
2022-12-27T14:53:44.122Z,6.47
2022-12-27T14:56:17.237Z,5.97
2022-12-27T14:58:50.638Z,6.93
2022-12-27T15:01:24.426Z,5.50
2022-12-27T15:04:00.051Z,3.83
2022-12-27T15:06:41.163Z,6.10
2022-12-27T15:09:11.156Z,8.90
2022-12-27T15:11:49.902Z,6.38
2022-12-27T15:14:30.765Z,4.63
2022-12-27T15:17:02.151Z,7.57
2022-12-27T15:19:41.278Z,6.20
2022-12-27T15:22:12.610Z,5.55
2022-12-27T15:24:47.206Z,5.30
2022-12-27T15:27:20.210Z,5.45
2022-12-27T15:29:54.811Z,4.07
2022-12-27T15:32:26.551Z,6.00
2022-12-27T15:35:05.118Z,6.10
2022-12-27T15:38:12.429Z,4.22
2022-12-27T15:40:53.375Z,4.97
2022-12-27T15:43:30.878Z,4.68
2022-12-27T15:46:06.745Z,6.40
2022-12-27T15:48:53.619Z,4.63
2022-12-27T15:51:26.159Z,4.45
2022-12-27T15:54:15.324Z,5.40
2022-12-27T15:56:45.448Z,5.88
2022-12-27T16:02:16.128Z,5.75
2022-12-27T16:04:48.692Z,3.50
2022-12-27T16:07:36.004Z,4.57
2022-12-27T16:10:45.749Z,4.25
2022-12-27T16:13:42.246Z,5.43
2022-12-27T16:16:26.561Z,4.03
2022-12-27T16:19:18.969Z,4.13
2022-12-27T16:21:47.295Z,4.35
2022-12-27T16:24:17.335Z,6.43
2022-12-27T16:26:56.041Z,4.13
2022-12-27T16:29:27.955Z,4.68
2022-12-27T16:32:14.631Z,4.78
2022-12-27T16:34:42.001Z,5.07
2022-12-27T16:37:22.482Z,3.30
2022-12-27T16:39:56.984Z,4.32
2022-12-27T16:42:25.295Z,3.65
2022-12-27T16:45:02.745Z,3.83
2022-12-27T16:47:56.256Z,4.13
2022-12-27T16:50:40.490Z,4.43
2022-12-27T16:53:16.809Z,3.70
2022-12-27T16:55:55.442Z,3.80
2022-12-27T16:58:25.066Z,5.38
2022-12-27T17:00:53.834Z,3.25
2022-12-27T17:03:43.825Z,4.88
2022-12-27T17:06:48.968Z,5.05
2022-12-27T17:09:49.569Z,3.35
2022-12-27T17:12:20.513Z,4.00
2022-12-27T17:14:47.938Z,3.72
2022-12-27T17:17:18.925Z,4.07
2022-12-27T17:19:48.163Z,5.15
2022-12-27T17:22:16.456Z,3.47
2022-12-27T17:24:43.976Z,3.90
2022-12-27T17:27:16.862Z,4.25
2022-12-27T17:30:05.062Z,2.75
2022-12-27T17:32:53.987Z,5.15
2022-12-27T17:35:28.753Z,3.65
2022-12-27T17:38:03.947Z,3.58
2022-12-27T17:40:33.382Z,3.55
2022-12-27T17:43:25.924Z,4.15
2022-12-27T17:45:55.475Z,3.70
2022-12-27T17:48:26.799Z,3.42
2022-12-27T17:50:55.208Z,3.22
2022-12-27T17:53:40.759Z,2.92
2022-12-27T17:56:34.131Z,4.32
2022-12-27T17:59:09.748Z,3.13
2022-12-27T18:01:39.474Z,4.30
2022-12-27T18:04:08.258Z,4.05
2022-12-27T18:06:37.062Z,2.97
2022-12-27T18:09:04.614Z,3.70
2022-12-27T18:11:32.442Z,3.78
2022-12-27T18:14:00.636Z,3.92
2022-12-27T18:16:34.109Z,3.88
2022-12-27T18:19:02.944Z,3.67
2022-12-27T18:21:32.028Z,3.20
2022-12-27T18:23:59.425Z,3.03
2022-12-27T18:26:36.060Z,3.85
2022-12-27T18:29:03.661Z,3.35
2022-12-27T18:31:33.472Z,3.65
2022-12-27T18:34:03.248Z,2.22
2022-12-27T18:36:33.730Z,2.92
2022-12-27T18:39:01.681Z,3.08
2022-12-27T18:41:29.751Z,3.05
2022-12-27T18:44:00.341Z,1.95
2022-12-27T18:46:29.654Z,3.05
2022-12-27T18:48:57.127Z,3.17
2022-12-27T18:51:32.048Z,2.78
2022-12-27T18:54:00.109Z,5.90
2022-12-27T18:56:30.645Z,3.38
2022-12-27T18:59:02.998Z,2.22
2022-12-27T19:01:33.736Z,4.28
2022-12-27T19:04:24.691Z,2.95
2022-12-27T19:06:56.293Z,2.40
2022-12-27T19:09:24.777Z,3.17
2022-12-27T19:11:53.044Z,3.28
2022-12-27T19:14:20.585Z,4.18
2022-12-27T19:16:49.539Z,5.00
2022-12-27T19:19:18.057Z,3.95
2022-12-27T19:21:45.431Z,2.60
2022-12-27T19:24:35.304Z,3.33
2022-12-27T19:27:15.725Z,3.03
2022-12-27T19:29:50.742Z,3.80
2022-12-27T19:32:18.499Z,3.40
2022-12-27T19:34:47.025Z,2.58
2022-12-27T19:37:14.475Z,2.72
2022-12-27T19:39:43.772Z,3.38
2022-12-27T19:42:13.074Z,2.90
2022-12-27T19:44:40.461Z,3.20
2022-12-27T19:47:10.794Z,2.92
2022-12-27T19:49:43.090Z,3.17
2022-12-27T19:52:12.500Z,3.45
2022-12-27T19:54:39.908Z,3.28
2022-12-27T19:57:10.035Z,4.03
2022-12-27T20:02:04.771Z,2.97
2022-12-27T20:04:32.859Z,2.83
2022-12-27T20:07:00.656Z,2.65
2022-12-27T20:09:28.210Z,3.17
2022-12-27T20:11:55.641Z,2.35
2022-12-27T20:14:24.331Z,3.08
2022-12-27T20:16:51.816Z,2.13
2022-12-27T20:19:20.014Z,4.25
2022-12-27T20:21:47.699Z,3.03
2022-12-27T20:24:15.388Z,2.58
2022-12-27T20:26:42.853Z,3.75
2022-12-27T20:29:10.274Z,4.50
2022-12-27T20:31:44.771Z,5.28
2022-12-27T20:34:12.944Z,3.20
2022-12-27T20:36:41.369Z,1.88
2022-12-27T20:39:09.588Z,2.33
2022-12-27T20:41:37.055Z,3.70
2022-12-27T20:44:04.922Z,1.98
2022-12-27T20:46:32.377Z,2.88
2022-12-27T20:49:01.182Z,3.13
2022-12-27T20:51:31.577Z,2.22
2022-12-27T20:54:00.311Z,4.25
2022-12-27T20:56:28.135Z,2.72
2022-12-27T20:58:55.589Z,2.85
2022-12-27T21:01:23.778Z,4.45
2022-12-27T21:03:51.280Z,3.53
2022-12-27T21:06:22.787Z,2.53
2022-12-27T21:08:56.308Z,2.70
2022-12-27T21:11:26.650Z,2.40
2022-12-27T21:13:54.075Z,3.58
2022-12-27T21:16:22.245Z,2.90
2022-12-27T21:18:49.803Z,2.63
2022-12-27T21:21:19.770Z,2.75
2022-12-27T21:26:17.354Z,2.92
2022-12-27T21:28:44.779Z,2.50
2022-12-27T21:31:12.468Z,3.08
2022-12-27T21:33:39.942Z,3.30
2022-12-27T21:36:08.976Z,2.45
2022-12-27T21:38:36.527Z,2.10
2022-12-27T21:41:06.707Z,2.72
2022-12-27T21:46:06.147Z,4.30
2022-12-27T21:48:33.601Z,2.95
2022-12-27T21:51:05.128Z,3.63
2022-12-27T21:53:32.515Z,3.03
2022-12-27T21:55:59.983Z,3.03
2022-12-27T21:58:29.991Z,2.47
2022-12-27T22:01:08.102Z,2.90
2022-12-27T22:03:36.978Z,3.05
2022-12-27T22:06:10.222Z,2.63
2022-12-27T22:08:37.699Z,2.78
2022-12-27T22:11:05.123Z,2.20
2022-12-27T22:13:33.861Z,2.95
2022-12-27T22:16:01.948Z,2.65
2022-12-27T22:18:31.523Z,2.28
2022-12-27T22:21:00.168Z,2.20
2022-12-27T22:23:27.567Z,2.35
2022-12-27T22:25:54.960Z,2.92
2022-12-27T22:28:22.345Z,3.85
2022-12-27T22:30:51.062Z,2.55
2022-12-27T22:33:18.491Z,3.78
2022-12-27T22:35:45.876Z,3.22
2022-12-27T22:38:13.246Z,2.53
2022-12-27T22:40:45.786Z,2.75
2022-12-27T22:43:14.441Z,2.03
2022-12-27T22:45:42.107Z,2.10
2022-12-27T22:48:10.791Z,1.92
2022-12-27T22:50:38.288Z,2.45
2022-12-27T22:53:05.697Z,3.42
2022-12-27T22:55:33.151Z,3.42
2022-12-27T22:58:00.540Z,1.70
2022-12-27T23:00:27.929Z,3.90
2022-12-27T23:02:55.321Z,1.92
2022-12-27T23:05:24.022Z,2.10
2022-12-27T23:08:05.117Z,2.30
2022-12-27T23:10:34.802Z,2.72
2022-12-27T23:13:02.204Z,2.95
2022-12-27T23:15:29.613Z,3.20
2022-12-27T23:17:56.988Z,2.10
2022-12-27T23:20:25.712Z,2.53
2022-12-27T23:22:53.258Z,2.58
2022-12-27T23:25:20.636Z,2.40
2022-12-27T23:27:48.035Z,1.98
2022-12-27T23:30:15.968Z,2.75
2022-12-27T23:32:43.337Z,3.15
2022-12-27T23:35:10.725Z,2.13
2022-12-27T23:37:39.419Z,2.05
2022-12-27T23:40:08.062Z,2.38
2022-12-27T23:42:35.561Z,1.98
2022-12-27T23:45:03.061Z,2.28
2022-12-27T23:47:30.429Z,2.65
2022-12-27T23:49:57.839Z,3.60
2022-12-27T23:52:25.225Z,1.95
2022-12-27T23:54:53.980Z,2.40
2022-12-27T23:57:22.819Z,2.88
2022-12-27T23:59:51.439Z,2.78
